createdAt,value
2022-08-02T00:00:30.898Z,1014.04
2022-08-02T00:01:30.927Z,1014.02
2022-08-02T00:02:30.906Z,1014.04
2022-08-02T00:03:30.958Z,1014.03
2022-08-02T00:04:30.907Z,1014.02
2022-08-02T00:05:30.907Z,1014.01
2022-08-02T00:06:30.915Z,1014.01
2022-08-02T00:07:30.912Z,1013.99
2022-08-02T00:08:30.913Z,1013.98
2022-08-02T00:09:30.917Z,1014.04
2022-08-02T00:10:30.922Z,1014.03
2022-08-02T00:11:30.922Z,1014.06
2022-08-02T00:12:30.923Z,1014.04
2022-08-02T00:13:30.931Z,1014.05
2022-08-02T00:14:30.930Z,1014.02
2022-08-02T00:15:30.931Z,1014.00
2022-08-02T00:16:37.594Z,1014.04
2022-08-02T00:17:30.933Z,1014.00
2022-08-02T00:18:30.940Z,1014.02
2022-08-02T00:19:31.136Z,1014.02
2022-08-02T00:20:30.942Z,1014.00
2022-08-02T00:21:30.947Z,1013.99
2022-08-02T00:22:30.944Z,1014.02
2022-08-02T00:23:30.948Z,1014.02
2022-08-02T00:24:31.248Z,1014.05
2022-08-02T00:25:30.951Z,1014.04
2022-08-02T00:26:30.955Z,1014.04
2022-08-02T00:27:30.951Z,1014.08
2022-08-02T00:28:30.960Z,1014.05
2022-08-02T00:29:30.964Z,1014.02
2022-08-02T00:30:30.957Z,1014.06
2022-08-02T00:32:30.967Z,1014.08
2022-08-02T00:34:27.087Z,1014.06
2022-08-02T00:34:33.910Z,1014.05
2022-08-02T00:35:30.974Z,1014.07
2022-08-02T00:36:30.977Z,1014.05
2022-08-02T00:37:30.974Z,1014.07
2022-08-02T00:38:30.975Z,1014.04
2022-08-02T00:39:33.464Z,1014.04
2022-08-02T00:40:30.985Z,1014.03
2022-08-02T00:41:30.985Z,1014.01
2022-08-02T00:42:30.987Z,1014.01
2022-08-02T00:43:30.989Z,1014.04
2022-08-02T00:44:30.986Z,1014.08
2022-08-02T00:46:03.191Z,1014.09
2022-08-02T00:46:30.996Z,1014.08
2022-08-02T00:47:30.995Z,1014.06
2022-08-02T00:48:32.408Z,1014.06
2022-08-02T00:49:31.065Z,1014.06
2022-08-02T00:50:31.002Z,1014.00
2022-08-02T00:51:31.006Z,1013.93
2022-08-02T00:52:31.007Z,1014.02
2022-08-02T00:53:31.009Z,1014.01
2022-08-02T00:54:31.009Z,1014.04
2022-08-02T00:55:31.487Z,1014.05
2022-08-02T00:56:31.014Z,1014.05
2022-08-02T00:57:31.017Z,1014.04
2022-08-02T00:58:31.018Z,1014.02
2022-08-02T00:59:31.021Z,1014.07
2022-08-02T01:00:31.021Z,1014.06
2022-08-02T01:01:31.085Z,1014.04
2022-08-02T01:02:31.232Z,1014.07
2022-08-02T01:03:31.028Z,1014.04
2022-08-02T01:05:42.762Z,1014.11
2022-08-02T01:07:31.037Z,1014.19
2022-08-02T01:08:31.803Z,1014.19
2022-08-02T01:09:31.042Z,1014.19
2022-08-02T01:10:31.048Z,1014.22
2022-08-02T01:11:31.045Z,1014.17
2022-08-02T01:12:31.046Z,1014.21
2022-08-02T01:13:31.051Z,1014.20
2022-08-02T01:14:31.053Z,1014.20
2022-08-02T01:15:36.085Z,1014.19
2022-08-02T01:17:31.266Z,1014.22
2022-08-02T01:18:31.059Z,1014.21
2022-08-02T01:19:31.262Z,1014.24
2022-08-02T01:20:31.064Z,1014.18
2022-08-02T01:21:31.270Z,1014.20
2022-08-02T01:22:59.539Z,1014.19
2022-08-02T01:23:31.070Z,1014.19
2022-08-02T01:24:31.075Z,1014.24
2022-08-02T01:25:31.075Z,1014.26
2022-08-02T01:26:31.079Z,1014.25
2022-08-02T01:27:31.081Z,1014.22
2022-08-02T01:28:31.080Z,1014.18
2022-08-02T01:29:31.084Z,1014.20
2022-08-02T01:30:31.082Z,1014.21
2022-08-02T01:31:31.087Z,1014.18
2022-08-02T01:32:31.089Z,1014.21
2022-08-02T01:34:31.093Z,1014.17
2022-08-02T01:35:47.422Z,1014.20
2022-08-02T01:36:31.100Z,1014.20
2022-08-02T01:37:31.098Z,1014.18
2022-08-02T01:38:31.101Z,1014.17
2022-08-02T01:39:32.519Z,1014.20
2022-08-02T01:41:31.112Z,1014.25
2022-08-02T01:42:31.115Z,1014.30
2022-08-02T01:43:31.125Z,1014.25
2022-08-02T01:44:31.315Z,1014.31
2022-08-02T01:45:31.116Z,1014.31
2022-08-02T01:46:31.316Z,1014.30
2022-08-02T01:47:31.121Z,1014.30
2022-08-02T01:48:31.119Z,1014.31
2022-08-02T01:49:31.269Z,1014.31
2022-08-02T01:50:31.127Z,1014.28
2022-08-02T01:51:35.461Z,1014.26
2022-08-02T01:52:31.128Z,1014.29
2022-08-02T01:53:31.344Z,1014.29
2022-08-02T01:54:31.136Z,1014.28
2022-08-02T01:55:35.167Z,1014.30
2022-08-02T01:56:31.147Z,1014.30
2022-08-02T01:57:31.342Z,1014.32
2022-08-02T01:58:31.145Z,1014.28
2022-08-02T01:59:31.147Z,1014.31
2022-08-02T02:00:31.148Z,1014.30
2022-08-02T02:01:31.212Z,1014.26
2022-08-02T02:02:31.924Z,1014.32
2022-08-02T02:03:31.152Z,1014.26
2022-08-02T02:04:31.153Z,1014.30
2022-08-02T02:05:31.159Z,1014.29
2022-08-02T02:08:33.787Z,1014.33
2022-08-02T02:09:31.165Z,1014.34
2022-08-02T02:10:31.166Z,1014.28
2022-08-02T02:12:31.177Z,1014.25
2022-08-02T02:13:33.505Z,1014.26
2022-08-02T02:14:31.377Z,1014.22
2022-08-02T02:15:31.181Z,1014.27
2022-08-02T02:16:31.183Z,1014.20
2022-08-02T02:17:57.101Z,1014.19
2022-08-02T02:18:31.186Z,1014.18
2022-08-02T02:19:31.191Z,1014.23
2022-08-02T02:20:31.194Z,1014.19
2022-08-02T02:21:31.361Z,1014.19
2022-08-02T02:22:31.205Z,1014.17
2022-08-02T02:23:32.152Z,1014.16
2022-08-02T02:24:31.202Z,1014.25
2022-08-02T02:25:36.060Z,1014.20
2022-08-02T02:26:31.868Z,1014.24
2022-08-02T02:27:31.206Z,1014.23
2022-08-02T02:28:31.208Z,1014.21
2022-08-02T02:29:31.200Z,1014.24
2022-08-02T02:30:31.214Z,1014.25
2022-08-02T02:31:32.429Z,1014.27
2022-08-02T02:32:31.217Z,1014.26
2022-08-02T02:33:31.215Z,1014.26
2022-08-02T02:34:31.220Z,1014.24
2022-08-02T02:35:31.222Z,1014.29
2022-08-02T02:36:31.229Z,1014.25
2022-08-02T02:37:31.228Z,1014.23
2022-08-02T02:38:31.429Z,1014.23
2022-08-02T02:39:31.234Z,1014.21
2022-08-02T02:40:31.432Z,1014.23
2022-08-02T02:41:31.232Z,1014.14
2022-08-02T02:42:31.246Z,1014.20
2022-08-02T02:43:31.240Z,1014.23
2022-08-02T02:44:31.241Z,1014.22
2022-08-02T02:45:31.241Z,1014.21
2022-08-02T02:46:31.252Z,1014.21
2022-08-02T02:47:40.824Z,1014.22
2022-08-02T02:48:31.453Z,1014.22
2022-08-02T02:49:31.316Z,1014.21
2022-08-02T02:50:31.260Z,1014.21
2022-08-02T02:51:31.255Z,1014.22
2022-08-02T02:52:31.461Z,1014.20
2022-08-02T02:54:33.065Z,1014.20
2022-08-02T02:54:34.967Z,1014.26
2022-08-02T02:55:31.260Z,1014.21
2022-08-02T02:56:31.274Z,1014.20
2022-08-02T02:57:31.268Z,1014.23
2022-08-02T02:58:31.271Z,1014.20
2022-08-02T02:59:31.278Z,1014.20
2022-08-02T03:00:31.279Z,1014.22
2022-08-02T03:01:56.363Z,1014.23
2022-08-02T03:02:31.281Z,1014.21
2022-08-02T03:03:31.280Z,1014.27
2022-08-02T03:04:55.382Z,1014.25
2022-08-02T03:05:31.284Z,1014.24
2022-08-02T03:06:31.289Z,1014.24
2022-08-02T03:07:31.292Z,1014.26
2022-08-02T03:08:31.299Z,1014.23
2022-08-02T03:09:31.294Z,1014.22
2022-08-02T03:10:31.299Z,1014.29
2022-08-02T03:11:31.301Z,1014.25
2022-08-02T03:12:32.422Z,1014.28
2022-08-02T03:13:33.155Z,1014.29
2022-08-02T03:14:31.307Z,1014.30
2022-08-02T03:15:31.305Z,1014.27
2022-08-02T03:16:31.309Z,1014.30
2022-08-02T03:17:31.312Z,1014.29
2022-08-02T03:18:31.329Z,1014.28
2022-08-02T03:19:33.187Z,1014.31
2022-08-02T03:20:31.321Z,1014.30
2022-08-02T03:21:31.325Z,1014.33
2022-08-02T03:22:31.324Z,1014.31
2022-08-02T03:23:31.339Z,1014.27
2022-08-02T03:24:31.336Z,1014.32
2022-08-02T03:26:31.332Z,1014.34
2022-08-02T03:27:31.333Z,1014.35
2022-08-02T03:28:31.335Z,1014.37
2022-08-02T03:29:34.496Z,1014.33
2022-08-02T03:30:31.336Z,1014.35
2022-08-02T03:31:32.836Z,1014.43
2022-08-02T03:32:31.346Z,1014.43
2022-08-02T03:33:31.351Z,1014.42
2022-08-02T03:34:31.345Z,1014.50
2022-08-02T03:35:31.352Z,1014.52
2022-08-02T03:36:31.353Z,1014.56
2022-08-02T03:37:31.355Z,1014.59
2022-08-02T03:38:31.361Z,1014.58
2022-08-02T03:40:31.363Z,1014.58
2022-08-02T03:41:31.364Z,1014.62
2022-08-02T03:42:31.370Z,1014.62
2022-08-02T03:43:31.367Z,1014.66
2022-08-02T03:45:31.373Z,1014.68
2022-08-02T03:46:31.373Z,1014.67
2022-08-02T03:47:31.378Z,1014.71
2022-08-02T03:48:34.784Z,1014.64
2022-08-02T03:50:31.381Z,1014.66
2022-08-02T03:51:31.383Z,1014.64
2022-08-02T03:52:31.392Z,1014.64
2022-08-02T03:53:31.391Z,1014.64
2022-08-02T03:54:32.884Z,1014.63
2022-08-02T03:55:31.395Z,1014.63
2022-08-02T03:56:31.396Z,1014.64
2022-08-02T03:57:31.400Z,1014.63
2022-08-02T03:58:31.399Z,1014.63
2022-08-02T03:59:32.629Z,1014.67
2022-08-02T04:00:31.517Z,1014.65
2022-08-02T04:01:31.479Z,1014.69
2022-08-02T04:03:31.615Z,1014.62
2022-08-02T04:04:31.416Z,1014.67
2022-08-02T04:05:31.419Z,1014.65
2022-08-02T04:08:33.995Z,1014.67
2022-08-02T04:08:36.952Z,1014.74
2022-08-02T04:09:31.427Z,1014.74
2022-08-02T04:10:31.430Z,1014.78
2022-08-02T04:11:31.424Z,1014.80
2022-08-02T04:12:31.430Z,1014.77
2022-08-02T04:13:35.642Z,1014.83
2022-08-02T04:14:31.632Z,1014.81
2022-08-02T04:15:31.437Z,1014.83
2022-08-02T04:16:31.443Z,1014.81
2022-08-02T04:17:31.440Z,1014.83
2022-08-02T04:18:31.641Z,1014.84
2022-08-02T04:19:31.446Z,1014.82
2022-08-02T04:21:41.360Z,1014.83
2022-08-02T04:22:31.459Z,1014.84
2022-08-02T04:23:31.454Z,1014.86
2022-08-02T04:24:31.457Z,1014.85
2022-08-02T04:25:35.471Z,1014.85
2022-08-02T04:26:31.460Z,1014.90
2022-08-02T04:27:50.502Z,1014.91
2022-08-02T04:28:31.465Z,1014.90
2022-08-02T04:29:31.468Z,1014.85
2022-08-02T04:30:31.471Z,1014.87
2022-08-02T04:31:31.471Z,1014.87
2022-08-02T04:32:31.469Z,1014.89
2022-08-02T04:33:31.480Z,1014.91
2022-08-02T04:34:31.476Z,1014.92
2022-08-02T04:35:31.480Z,1014.93
2022-08-02T04:36:32.043Z,1014.94
2022-08-02T04:37:31.485Z,1014.93
2022-08-02T04:38:31.486Z,1014.93
2022-08-02T04:39:31.494Z,1014.93
2022-08-02T04:40:31.487Z,1014.96
2022-08-02T04:41:31.493Z,1014.94
2022-08-02T04:42:31.492Z,1014.99
2022-08-02T04:43:31.503Z,1014.94
2022-08-02T04:44:31.496Z,1014.98
2022-08-02T04:45:31.498Z,1015.00
2022-08-02T04:46:31.503Z,1015.00
2022-08-02T04:48:02.116Z,1015.01
2022-08-02T04:48:31.517Z,1014.97
2022-08-02T04:49:31.605Z,1014.99
2022-08-02T04:50:31.506Z,1015.03
2022-08-02T04:51:38.018Z,1015.03
2022-08-02T04:52:31.514Z,1015.08
2022-08-02T04:53:31.522Z,1015.12
2022-08-02T04:54:31.512Z,1015.13
2022-08-02T04:55:31.519Z,1015.13
2022-08-02T04:56:31.522Z,1015.12
2022-08-02T04:57:31.524Z,1015.11
2022-08-02T04:58:40.748Z,1015.09
2022-08-02T04:59:31.731Z,1015.07
2022-08-02T05:00:31.620Z,1015.11
2022-08-02T05:01:31.550Z,1015.06
2022-08-02T05:02:31.539Z,1015.11
2022-08-02T05:03:31.555Z,1015.11
2022-08-02T05:04:31.541Z,1015.11
2022-08-02T05:05:31.546Z,1015.12
2022-08-02T05:06:31.544Z,1015.09
2022-08-02T05:07:31.548Z,1015.14
2022-08-02T05:08:31.547Z,1015.12
2022-08-02T05:09:31.551Z,1015.14
2022-08-02T05:10:31.551Z,1015.17
2022-08-02T05:11:34.395Z,1015.20
2022-08-02T05:12:31.752Z,1015.17
2022-08-02T05:13:31.564Z,1015.20
2022-08-02T05:14:31.557Z,1015.20
2022-08-02T05:15:33.419Z,1015.19
2022-08-02T05:16:32.319Z,1015.19
2022-08-02T05:17:31.572Z,1015.23
2022-08-02T05:18:31.568Z,1015.21
2022-08-02T05:19:31.575Z,1015.26
2022-08-02T05:20:31.575Z,1015.27
2022-08-02T05:21:31.681Z,1015.24
2022-08-02T05:22:31.578Z,1015.23
2022-08-02T05:23:31.785Z,1015.21
2022-08-02T05:24:31.580Z,1015.20
2022-08-02T05:25:31.793Z,1015.25
2022-08-02T05:26:31.587Z,1015.20
2022-08-02T05:27:31.591Z,1015.28
2022-08-02T05:28:31.597Z,1015.30
2022-08-02T05:29:31.594Z,1015.32
2022-08-02T05:30:31.595Z,1015.34
2022-08-02T05:31:31.595Z,1015.31
2022-08-02T05:32:31.602Z,1015.25
2022-08-02T05:33:31.606Z,1015.27
2022-08-02T05:34:31.604Z,1015.29
2022-08-02T05:35:31.609Z,1015.29
2022-08-02T05:36:31.612Z,1015.32
2022-08-02T05:37:31.963Z,1015.34
2022-08-02T05:38:31.616Z,1015.34
2022-08-02T05:39:31.731Z,1015.33
2022-08-02T05:40:31.619Z,1015.31
2022-08-02T05:41:31.620Z,1015.27
2022-08-02T05:42:31.630Z,1015.27
2022-08-02T05:43:31.629Z,1015.24
2022-08-02T05:44:31.633Z,1015.23
2022-08-02T05:45:31.637Z,1015.28
2022-08-02T05:46:31.631Z,1015.30
2022-08-02T05:47:31.634Z,1015.37
2022-08-02T05:48:32.432Z,1015.42
2022-08-02T05:49:31.720Z,1015.49
2022-08-02T05:50:31.708Z,1015.50
2022-08-02T05:51:32.472Z,1015.50
2022-08-02T05:52:31.647Z,1015.50
2022-08-02T05:53:31.652Z,1015.47
2022-08-02T05:54:31.651Z,1015.50
2022-08-02T05:55:31.651Z,1015.54
2022-08-02T05:56:31.657Z,1015.57
2022-08-02T05:57:31.660Z,1015.59
2022-08-02T05:58:31.664Z,1015.61
2022-08-02T05:59:31.661Z,1015.64
2022-08-02T06:00:31.660Z,1015.69
2022-08-02T06:01:31.745Z,1015.66
2022-08-02T06:02:31.671Z,1015.61
2022-08-02T06:03:31.677Z,1015.60
2022-08-02T06:04:32.688Z,1015.66
2022-08-02T06:05:31.676Z,1015.64
2022-08-02T06:06:31.676Z,1015.64
2022-08-02T06:07:31.685Z,1015.63
2022-08-02T06:08:31.688Z,1015.67
2022-08-02T06:09:31.691Z,1015.67
2022-08-02T06:10:31.698Z,1015.65
2022-08-02T06:11:31.690Z,1015.59
2022-08-02T06:12:31.694Z,1015.60
2022-08-02T06:13:31.700Z,1015.62
2022-08-02T06:14:31.702Z,1015.68
2022-08-02T06:15:31.711Z,1015.71
2022-08-02T06:16:32.917Z,1015.71
2022-08-02T06:17:31.708Z,1015.74
2022-08-02T06:18:31.710Z,1015.77
2022-08-02T06:19:31.711Z,1015.76
2022-08-02T06:20:31.716Z,1015.75
2022-08-02T06:22:31.811Z,1015.80
2022-08-02T06:22:37.027Z,1015.86
2022-08-02T06:23:31.733Z,1015.92
2022-08-02T06:24:31.728Z,1015.81
2022-08-02T06:25:49.902Z,1015.74
2022-08-02T06:26:31.731Z,1015.68
2022-08-02T06:27:31.739Z,1015.62
2022-08-02T06:28:31.741Z,1015.64
2022-08-02T06:29:34.446Z,1015.61
2022-08-02T06:30:31.744Z,1015.61
2022-08-02T06:31:31.744Z,1015.62
2022-08-02T06:32:31.750Z,1015.62
2022-08-02T06:33:31.752Z,1015.62
2022-08-02T06:34:31.760Z,1015.61
2022-08-02T06:35:31.757Z,1015.59
2022-08-02T06:36:31.765Z,1015.59
2022-08-02T06:37:31.763Z,1015.60
2022-08-02T06:38:31.767Z,1015.61
2022-08-02T06:39:31.769Z,1015.60
2022-08-02T06:40:31.780Z,1015.68
2022-08-02T06:41:31.774Z,1015.66
2022-08-02T06:42:31.779Z,1015.73
2022-08-02T06:43:31.778Z,1015.77
2022-08-02T06:44:48.527Z,1015.75
2022-08-02T06:45:31.786Z,1015.76
2022-08-02T06:46:34.170Z,1015.80
2022-08-02T06:47:31.792Z,1015.78
2022-08-02T06:48:31.794Z,1015.82
2022-08-02T06:49:52.633Z,1015.79
2022-08-02T06:50:31.800Z,1015.78
2022-08-02T06:51:31.800Z,1015.80
2022-08-02T06:52:31.806Z,1015.84
2022-08-02T06:53:31.829Z,1015.79
2022-08-02T06:54:31.817Z,1015.82
2022-08-02T06:55:31.815Z,1015.82
2022-08-02T06:56:31.839Z,1015.80
2022-08-02T06:57:31.835Z,1015.81
2022-08-02T06:58:31.823Z,1015.76
2022-08-02T06:59:31.825Z,1015.74
2022-08-02T07:00:31.830Z,1015.77
2022-08-02T07:01:38.631Z,1015.76
2022-08-02T07:02:31.835Z,1015.74
2022-08-02T07:03:31.837Z,1015.74
2022-08-02T07:04:31.865Z,1015.71
2022-08-02T07:05:31.844Z,1015.68
2022-08-02T07:06:31.846Z,1015.72
2022-08-02T07:07:31.849Z,1015.72
2022-08-02T07:08:31.849Z,1015.68
2022-08-02T07:09:31.856Z,1015.66
2022-08-02T07:10:31.850Z,1015.64
2022-08-02T07:11:31.860Z,1015.66
2022-08-02T07:12:31.891Z,1015.64
2022-08-02T07:13:33.175Z,1015.64
2022-08-02T07:14:32.190Z,1015.67
2022-08-02T07:15:31.876Z,1015.70
2022-08-02T07:16:31.878Z,1015.72
2022-08-02T07:17:31.883Z,1015.74
2022-08-02T07:18:31.880Z,1015.68
2022-08-02T07:19:37.855Z,1015.63
2022-08-02T07:20:31.897Z,1015.63
2022-08-02T07:21:57.162Z,1015.61
2022-08-02T07:22:31.894Z,1015.65
2022-08-02T07:23:31.897Z,1015.68
2022-08-02T07:24:31.899Z,1015.71
2022-08-02T07:26:01.743Z,1015.75
2022-08-02T07:26:31.901Z,1015.73
2022-08-02T07:27:31.908Z,1015.75
2022-08-02T07:28:31.913Z,1015.76
2022-08-02T07:29:32.718Z,1015.74
2022-08-02T07:30:31.915Z,1015.79
2022-08-02T07:31:31.918Z,1015.86
2022-08-02T07:32:31.959Z,1015.94
2022-08-02T07:33:37.516Z,1015.93
2022-08-02T07:34:31.932Z,1015.96
2022-08-02T07:35:31.931Z,1015.95
2022-08-02T07:36:31.933Z,1015.97
2022-08-02T07:37:52.970Z,1015.96
2022-08-02T07:38:31.940Z,1016.01
2022-08-02T07:39:31.946Z,1016.07
2022-08-02T07:40:31.954Z,1016.07
2022-08-02T07:41:31.950Z,1016.04
2022-08-02T07:42:31.962Z,1016.10
2022-08-02T07:43:31.960Z,1016.18
2022-08-02T07:44:31.971Z,1016.17
2022-08-02T07:45:31.975Z,1016.51
2022-08-02T07:46:31.971Z,1019.66
2022-08-02T07:47:31.972Z,1023.52
2022-08-02T07:48:31.974Z,1028.15
2022-08-02T07:49:32.035Z,1030.98
2022-08-02T07:50:31.983Z,1029.42
2022-08-02T07:51:31.989Z,1031.98
2022-08-02T07:52:31.992Z,1032.90
2022-08-02T07:53:50.241Z,1032.88
2022-08-02T07:54:32.003Z,1033.22
2022-08-02T07:55:39.474Z,1032.33
2022-08-02T07:56:32.013Z,1031.33
2022-08-02T07:57:32.023Z,1032.40
2022-08-02T07:58:32.017Z,1033.95
2022-08-02T07:59:32.024Z,1033.46
2022-08-02T08:00:32.038Z,1033.46
2022-08-02T08:01:32.095Z,1034.28
2022-08-02T08:02:32.042Z,1034.38
2022-08-02T08:03:32.048Z,1034.01
2022-08-02T08:04:32.059Z,1033.51
2022-08-02T08:05:32.061Z,1032.96
2022-08-02T08:06:32.067Z,1032.39
2022-08-02T08:07:32.077Z,1032.05
2022-08-02T08:08:32.090Z,1032.15
2022-08-02T08:09:32.098Z,1032.60
2022-08-02T08:10:32.102Z,1031.16
2022-08-02T08:11:32.118Z,1028.23
2022-08-02T08:12:32.117Z,1029.40
2022-08-02T08:13:32.123Z,1027.68
2022-08-02T08:14:32.146Z,1027.74
2022-08-02T08:15:32.143Z,1029.58
2022-08-02T08:16:32.160Z,1024.96
2022-08-02T08:17:32.163Z,1023.35
2022-08-02T08:18:32.178Z,1025.94
2022-08-02T08:19:50.342Z,1024.84
2022-08-02T08:20:32.196Z,1025.15
2022-08-02T08:21:32.203Z,1025.70
2022-08-02T08:22:32.217Z,1025.13
2022-08-02T08:23:32.221Z,1025.17
2022-08-02T08:24:32.234Z,1023.84
2022-08-02T08:25:32.244Z,1023.61
2022-08-02T08:26:32.259Z,1021.62
2022-08-02T08:27:32.281Z,1016.37
2022-08-02T08:28:32.278Z,1016.23
2022-08-02T08:29:32.302Z,1022.22
2022-08-02T08:30:32.303Z,1017.88
2022-08-02T08:31:32.315Z,1022.09
2022-08-02T08:32:32.330Z,1021.09
2022-08-02T08:33:32.339Z,1020.73
2022-08-02T08:34:32.361Z,1021.00
2022-08-02T08:35:32.365Z,1020.24
2022-08-02T08:36:32.379Z,1020.06
2022-08-02T08:37:32.391Z,1019.75
2022-08-02T08:38:32.402Z,1019.04
2022-08-02T08:39:32.413Z,1018.51
2022-08-02T08:40:32.430Z,1018.27
2022-08-02T08:41:32.452Z,1018.14
2022-08-02T08:42:32.455Z,1018.11
2022-08-02T08:43:32.464Z,1018.08
2022-08-02T08:44:32.478Z,1017.88
2022-08-02T08:45:32.495Z,1017.68
2022-08-02T08:46:32.510Z,1017.63
2022-08-02T08:47:33.818Z,1017.54
2022-08-02T08:48:32.539Z,1017.36
2022-08-02T08:49:32.621Z,1017.29
2022-08-02T08:50:33.597Z,1017.39
2022-08-02T08:51:32.583Z,1017.41
2022-08-02T08:52:32.596Z,1017.41
2022-08-02T08:53:36.421Z,1016.55
2022-08-02T08:54:32.631Z,1015.73
2022-08-02T08:55:32.642Z,1017.48
2022-08-02T08:56:32.668Z,1015.79
2022-08-02T08:57:32.678Z,1015.66
2022-08-02T08:58:32.692Z,1015.64
2022-08-02T08:59:32.711Z,1015.55
2022-08-02T09:00:32.730Z,1015.85
2022-08-02T09:01:50.439Z,1015.95
2022-08-02T09:02:32.901Z,1015.70
2022-08-02T09:03:34.025Z,1015.71
2022-08-02T09:04:32.790Z,1016.51
2022-08-02T09:05:32.801Z,1016.87
2022-08-02T09:06:32.819Z,1017.08
2022-08-02T09:07:32.847Z,1016.22
2022-08-02T09:08:32.854Z,1015.86
2022-08-02T09:09:32.872Z,1016.20
2022-08-02T09:10:32.887Z,1015.61
2022-08-02T09:11:32.901Z,1015.55
2022-08-02T09:12:32.917Z,1015.52
2022-08-02T09:13:45.043Z,1015.56
2022-08-02T09:14:32.958Z,1015.45
2022-08-02T09:15:32.965Z,1015.46
2022-08-02T09:16:32.975Z,1015.51
2022-08-02T09:17:33.000Z,1015.54
2022-08-02T09:18:33.011Z,1015.50
2022-08-02T09:19:33.026Z,1015.46
2022-08-02T09:20:33.038Z,1015.50
2022-08-02T09:21:33.051Z,1015.44
2022-08-02T09:22:33.067Z,1015.48
2022-08-02T09:23:33.083Z,1015.42
2022-08-02T09:24:33.100Z,1015.38
2022-08-02T09:25:33.115Z,1015.49
2022-08-02T09:26:33.130Z,1015.47
2022-08-02T09:27:33.146Z,1015.51
2022-08-02T09:28:33.156Z,1015.49
2022-08-02T09:29:34.520Z,1015.40
2022-08-02T09:30:33.185Z,1015.39
2022-08-02T09:31:33.195Z,1015.34
2022-08-02T09:32:33.210Z,1015.31
2022-08-02T09:33:33.248Z,1015.28
2022-08-02T09:34:33.233Z,1015.38
2022-08-02T09:36:05.391Z,1015.36
2022-08-02T09:36:33.262Z,1015.21
2022-08-02T09:37:33.272Z,1015.21
2022-08-02T09:38:33.291Z,1015.29
2022-08-02T09:39:33.294Z,1015.23
2022-08-02T09:40:33.316Z,1015.25
2022-08-02T09:41:33.327Z,1015.29
2022-08-02T09:42:33.336Z,1015.27
2022-08-02T09:43:33.348Z,1015.30
2022-08-02T09:44:33.368Z,1015.33
2022-08-02T09:45:33.376Z,1015.28
2022-08-02T09:46:33.412Z,1015.28
2022-08-02T09:47:33.417Z,1015.29
2022-08-02T09:48:33.411Z,1015.24
2022-08-02T09:49:33.531Z,1015.28
2022-08-02T09:50:33.433Z,1015.26
2022-08-02T09:51:33.444Z,1015.26
2022-08-02T09:52:36.862Z,1015.30
2022-08-02T09:53:33.471Z,1015.29
2022-08-02T09:54:33.490Z,1015.31
2022-08-02T09:55:33.494Z,1015.36
2022-08-02T09:56:35.668Z,1015.21
2022-08-02T09:57:33.522Z,1015.21
2022-08-02T09:58:33.526Z,1015.26
2022-08-02T09:59:33.541Z,1015.22
2022-08-02T10:00:52.023Z,1015.20
2022-08-02T10:01:37.642Z,1015.27
2022-08-02T10:02:33.639Z,1015.30
2022-08-02T10:03:35.372Z,1015.14
2022-08-02T10:04:34.535Z,1015.45
2022-08-02T10:05:39.362Z,1015.76
2022-08-02T10:06:33.630Z,1015.94
2022-08-02T10:07:33.643Z,1016.11
2022-08-02T10:08:33.998Z,1016.32
2022-08-02T10:09:33.666Z,1016.52
2022-08-02T10:10:33.682Z,1016.59
2022-08-02T10:11:33.744Z,1016.56
2022-08-02T10:12:33.709Z,1016.61
2022-08-02T10:13:33.723Z,1016.70
2022-08-02T10:14:33.749Z,1016.70
2022-08-02T10:15:33.754Z,1016.80
2022-08-02T10:16:33.766Z,1016.92
2022-08-02T10:17:33.781Z,1016.87
2022-08-02T10:18:39.390Z,1017.01
2022-08-02T10:20:03.474Z,1017.13
2022-08-02T10:20:33.826Z,1017.20
2022-08-02T10:21:33.838Z,1017.42
2022-08-02T10:22:33.862Z,1017.52
2022-08-02T10:23:33.875Z,1017.74
2022-08-02T10:24:33.889Z,1017.72
2022-08-02T10:25:33.920Z,1017.76
2022-08-02T10:26:33.926Z,1017.86
2022-08-02T10:27:49.341Z,1017.89
2022-08-02T10:28:33.966Z,1017.03
2022-08-02T10:29:43.943Z,1016.17
2022-08-02T10:30:34.004Z,1015.31
2022-08-02T10:31:34.020Z,1017.73
2022-08-02T10:32:34.037Z,1017.82
2022-08-02T10:33:34.057Z,1017.81
2022-08-02T10:34:34.080Z,1015.20
2022-08-02T10:35:34.100Z,1015.57
2022-08-02T10:36:34.124Z,1016.60
2022-08-02T10:37:34.129Z,1017.73
2022-08-02T10:38:34.150Z,1017.72
2022-08-02T10:39:34.173Z,1017.80
2022-08-02T10:40:34.189Z,1015.19
2022-08-02T10:41:34.211Z,1015.17
2022-08-02T10:42:34.226Z,1015.21
2022-08-02T10:43:34.246Z,1015.26
2022-08-02T10:44:34.268Z,1015.32
2022-08-02T10:45:34.298Z,1015.33
2022-08-02T10:46:34.301Z,1015.25
2022-08-02T10:47:34.327Z,1015.39
2022-08-02T10:48:34.338Z,1015.36
2022-08-02T10:49:39.856Z,1017.63
2022-08-02T10:50:34.373Z,1017.71
2022-08-02T10:51:34.688Z,1017.64
2022-08-02T10:52:34.418Z,1017.60
2022-08-02T10:53:34.430Z,1017.56
2022-08-02T10:54:34.451Z,1017.46
2022-08-02T10:55:34.475Z,1017.35
2022-08-02T10:56:34.496Z,1016.09
2022-08-02T10:57:34.507Z,1016.68
2022-08-02T10:58:34.536Z,1015.22
2022-08-02T10:59:34.549Z,1015.19
2022-08-02T11:00:34.639Z,1016.77
2022-08-02T11:01:38.662Z,1015.18
2022-08-02T11:02:34.606Z,1015.20
2022-08-02T11:03:39.663Z,1015.61
2022-08-02T11:04:34.639Z,1015.93
2022-08-02T11:05:42.636Z,1016.70
2022-08-02T11:06:34.683Z,1016.55
2022-08-02T11:07:34.710Z,1016.31
2022-08-02T11:08:34.718Z,1014.95
2022-08-02T11:09:34.752Z,1016.55
2022-08-02T11:10:34.762Z,1016.57
2022-08-02T11:11:54.302Z,1016.50
2022-08-02T11:12:34.810Z,1016.43
2022-08-02T11:13:34.829Z,1016.31
2022-08-02T11:14:34.843Z,1016.22
2022-08-02T11:15:34.865Z,1016.31
2022-08-02T11:16:34.892Z,1016.26
2022-08-02T11:17:37.994Z,1016.22
2022-08-02T11:18:34.932Z,1016.10
2022-08-02T11:19:34.953Z,1015.97
2022-08-02T11:20:34.980Z,1015.94
2022-08-02T11:21:34.993Z,1015.94
2022-08-02T11:22:35.027Z,1015.87
2022-08-02T11:23:44.546Z,1015.93
2022-08-02T11:24:35.068Z,1015.85
2022-08-02T11:26:01.403Z,1015.82
2022-08-02T11:26:35.113Z,1015.83
2022-08-02T11:27:35.137Z,1015.80
2022-08-02T11:28:35.160Z,1015.65
2022-08-02T11:29:38.603Z,1015.68
2022-08-02T11:30:35.206Z,1015.71
2022-08-02T11:31:35.231Z,1015.68
2022-08-02T11:32:35.260Z,1015.18
2022-08-02T11:33:35.278Z,1015.58
2022-08-02T11:34:37.257Z,1014.71
2022-08-02T11:35:35.332Z,1015.36
2022-08-02T11:36:35.352Z,1015.51
2022-08-02T11:37:35.376Z,1015.59
2022-08-02T11:38:35.402Z,1015.41
2022-08-02T11:39:35.431Z,1015.40
2022-08-02T11:40:35.631Z,1015.38
2022-08-02T11:41:47.245Z,1015.44
2022-08-02T11:42:35.499Z,1015.36
2022-08-02T11:43:35.527Z,1015.42
2022-08-02T11:44:35.554Z,1015.41
2022-08-02T11:45:36.115Z,1015.42
2022-08-02T11:46:35.603Z,1015.39
2022-08-02T11:47:35.631Z,1015.43
2022-08-02T11:48:35.654Z,1015.45
2022-08-02T11:49:35.711Z,1015.48
2022-08-02T11:50:35.706Z,1015.45
2022-08-02T11:51:35.736Z,1015.47
2022-08-02T11:52:35.765Z,1015.48
2022-08-02T11:53:35.785Z,1015.45
2022-08-02T11:54:35.836Z,1014.71
2022-08-02T11:55:35.837Z,1015.05
2022-08-02T11:56:35.862Z,1015.25
2022-08-02T11:58:03.019Z,1015.41
2022-08-02T11:58:35.916Z,1014.87
2022-08-02T11:59:35.946Z,1015.36
2022-08-02T12:00:35.972Z,1015.33
2022-08-02T12:01:36.844Z,1015.28
2022-08-02T12:02:36.021Z,1015.22
2022-08-02T12:03:36.177Z,1015.23
2022-08-02T12:04:36.071Z,1015.20
2022-08-02T12:06:05.645Z,1015.20
2022-08-02T12:06:36.134Z,1015.18
2022-08-02T12:07:36.530Z,1015.20
2022-08-02T12:08:36.178Z,1015.24
2022-08-02T12:09:40.902Z,1015.19
2022-08-02T12:10:36.228Z,1015.17
2022-08-02T12:11:38.967Z,1015.20
2022-08-02T12:12:36.285Z,1015.20
2022-08-02T12:13:36.307Z,1015.27
2022-08-02T12:14:36.336Z,1015.23
2022-08-02T12:15:36.363Z,1015.18
2022-08-02T12:16:36.389Z,1015.18
2022-08-02T12:17:36.418Z,1015.18
2022-08-02T12:18:36.444Z,1015.15
2022-08-02T12:19:36.470Z,1015.14
2022-08-02T12:20:36.499Z,1015.14
2022-08-02T12:21:36.523Z,1015.12